Time;durP1;ratioP1;P1;durP2;ratioP2;P2;SDS_P1;SDS_P2;PMS_P1;PMS_P2;Temp;Humidity;BMP_temperature;BMP_pressure;BME280_temperature;BME280_humidity;BME280_pressure;Samples;Min_cycle;Max_cycle;Signal;HPM_P1;HPM_P2
2022/04/01 00:02:07;;;;;;;;;1.00;0.00;;;;;2.70;100.00;100176.34;6277896;22;46722;-81
2022/04/01 00:04:32;;;;;;;;;6.67;2.67;;;;;2.71;100.00;100185.09;6305395;22;45316;-80
2022/04/01 00:06:58;;;;;;;;;7.00;3.00;;;;;2.73;100.00;100185.88;6278622;22;45330;-82
2022/04/01 00:09:24;;;;;;;;;1.00;0.00;;;;;2.74;100.00;100175.28;6306334;22;45392;-82
2022/04/01 00:11:50;;;;;;;;;1.67;1.00;;;;;2.72;100.00;100198.13;6305881;22;45133;-81
2022/04/01 00:14:15;;;;;;;;;3.67;2.67;;;;;2.74;100.00;100166.56;6305439;22;45325;-81
2022/04/01 00:16:41;;;;;;;;;3.00;1.00;;;;;2.77;100.00;100180.41;6305961;22;44699;-82
2022/04/01 00:19:06;;;;;;;;;5.67;1.00;;;;;2.74;100.00;100164.81;6306441;22;45532;-82
2022/04/01 00:21:31;;;;;;;;;4.00;1.67;;;;;2.66;100.00;100179.16;6309317;22;45321;-79
2022/04/01 00:23:57;;;;;;;;;1.00;0.67;;;;;2.66;100.00;100164.31;6307545;22;44718;-81
2022/04/01 00:26:22;;;;;;;;;2.00;1.00;;;;;2.57;100.00;100172.56;6305009;22;45083;-81
2022/04/01 00:28:48;;;;;;;;;3.33;1.67;;;;;2.55;100.00;100167.38;6305602;22;44785;-81
2022/04/01 00:31:13;;;;;;;;;6.33;0.00;;;;;2.56;100.00;100160.34;6304976;22;45134;-79
2022/04/01 00:33:39;;;;;;;;;3.00;1.33;;;;;2.57;100.00;100156.84;6304471;22;44643;-81
2022/04/01 00:36:05;;;;;;;;;4.33;2.00;;;;;2.55;100.00;100177.84;6305324;22;45246;-81
2022/04/01 00:38:30;;;;;;;;;1.67;1.00;;;;;2.56;100.00;100162.97;6305161;22;44927;-81
2022/04/01 00:40:58;;;;;;;;;2.00;1.67;;;;;2.60;100.00;100161.09;6306905;22;45024;-81
2022/04/01 00:43:30;;;;;;;;;3.00;1.00;;;;;2.62;100.00;100157.50;6307983;22;44757;-78
2022/04/01 00:45:57;;;;;;;;;3.67;3.67;;;;;2.63;100.00;100177.53;6306127;22;44661;-82
2022/04/01 00:48:23;;;;;;;;;2.00;2.00;;;;;2.62;100.00;100157.50;6308059;22;44823;-82
2022/04/01 00:50:48;;;;;;;;;7.33;2.00;;;;;2.67;100.00;100144.19;6314437;22;45040;-81
2022/04/01 00:53:14;;;;;;;;;2.33;2.33;;;;;2.63;100.00;100153.94;6311738;22;44720;-80
2022/04/01 00:55:40;;;;;;;;;2.33;2.33;;;;;2.63;100.00;100137.38;6309930;22;44744;-80
2022/04/01 00:58:09;;;;;;;;;3.00;3.00;;;;;2.62;100.00;100154.88;6305499;22;44783;-80
2022/04/01 01:00:36;;;;;;;;;1.67;1.67;;;;;2.54;100.00;100149.94;6306532;22;44918;-83
2022/04/01 01:03:05;;;;;;;;;2.67;0.00;;;;;2.56;100.00;100121.91;6305340;22;44680;-82
2022/04/01 01:05:31;;;;;;;;;0.00;0.00;;;;;2.58;100.00;100135.78;6305279;22;45238;-81
2022/04/01 01:07:57;;;;;;;;;1.00;1.00;;;;;2.62;100.00;100119.94;6277327;22;44982;-81
2022/04/01 01:10:24;;;;;;;;;1.00;0.00;;;;;2.62;100.00;100118.16;6303765;22;45255;-80
2022/04/01 01:12:51;;;;;;;;;0.00;0.00;;;;;2.60;100.00;100111.25;6305508;22;44700;-80
2022/04/01 01:15:18;;;;;;;;;3.00;1.00;;;;;2.59;100.00;100136.63;6309576;22;44737;-80
2022/04/01 01:17:49;;;;;;;;;2.00;0.00;;;;;2.60;100.00;100133.09;6310283;22;44860;-81
2022/04/01 01:20:17;;;;;;;;;1.00;1.00;;;;;2.59;100.00;100113.03;6302363;22;45226;-81
2022/04/01 01:22:44;;;;;;;;;2.67;1.33;;;;;2.64;100.00;100086.63;6306197;22;44677;-81
2022/04/01 01:25:12;;;;;;;;;1.33;1.33;;;;;2.64;100.00;100086.63;6306372;22;44665;-80
2022/04/01 01:27:38;;;;;;;;;0.00;0.00;;;;;2.58;100.00;100090.38;6306724;22;44785;-80
2022/04/01 01:30:05;;;;;;;;;1.00;1.00;;;;;2.58;100.00;100109.56;6277419;22;45171;-81
2022/04/01 01:32:32;;;;;;;;;2.00;1.00;;;;;2.60;100.00;100082.44;6305928;22;44648;-80
2022/04/01 01:34:58;;;;;;;;;0.33;0.33;;;;;2.60;100.00;100075.41;6309797;22;44777;-81
2022/04/01 01:37:24;;;;;;;;;1.00;1.00;;;;;2.60;100.00;100079.81;6310114;22;45238;-81
2022/04/01 01:39:49;;;;;;;;;1.67;1.00;;;;;2.60;100.00;100082.44;6308241;22;45245;-80
2022/04/01 01:42:15;;;;;;;;;3.00;1.00;;;;;2.58;100.00;100106.94;6306689;22;45244;-81
2022/04/01 01:44:41;;;;;;;;;3.00;0.67;;;;;2.57;100.00;100067.69;6308895;22;44812;-80
2022/04/01 01:47:06;;;;;;;;;1.00;1.00;;;;;2.52;100.00;100083.63;6314082;22;44728;-81
2022/04/01 01:49:32;;;;;;;;;2.00;0.00;;;;;2.51;100.00;100060.94;6307928;22;45213;-81
2022/04/01 01:57:07;;;;;;;;;1.33;0.67;;;;;2.30;100.00;100080.25;6312990;22;44775;-80
2022/04/01 01:59:34;;;;;;;;;3.00;1.00;;;;;2.21;100.00;100073.63;6311585;22;45333;-81
2022/04/01 02:02:02;;;;;;;;;2.33;1.00;;;;;2.23;100.00;100070.97;6281382;22;44773;-80
2022/04/01 02:04:28;;;;;;;;;0.00;0.00;;;;;2.12;100.00;100068.78;6305975;22;44813;-79
2022/04/01 02:06:53;;;;;;;;;5.00;2.00;;;;;2.13;100.00;100054.78;6306846;22;44721;-81
2022/04/01 02:09:18;;;;;;;;;4.33;2.00;;;;;2.15;100.00;100042.47;6278215;22;46638;-80
2022/04/01 02:11:44;;;;;;;;;2.67;0.67;;;;;2.15;100.00;100087.00;6306023;22;44729;-81
2022/04/01 02:14:11;;;;;;;;;6.00;1.00;;;;;2.16;100.00;100043.31;6278820;22;45263;-79
2022/04/01 02:16:37;;;;;;;;;2.33;1.00;;;;;2.16;100.00;100046.78;6310073;22;44751;-80
2022/04/01 02:19:04;;;;;;;;;0.00;0.00;;;;;2.17;100.00;100060.72;6308345;22;45258;-81
2022/04/01 02:21:29;;;;;;;;;1.00;1.00;;;;;2.16;100.00;100079.97;6305972;22;45285;-81
2022/04/01 02:23:55;;;;;;;;;3.67;2.33;;;;;2.16;100.00;100052.00;6277301;22;45358;-80
2022/04/01 02:26:21;;;;;;;;;0.00;0.00;;;;;2.09;100.00;100037.50;6307579;22;44823;-79
2022/04/01 02:28:47;;;;;;;;;1.00;1.00;;;;;1.99;100.00;100049.28;6307004;22;45179;-79
2022/04/01 02:31:14;;;;;;;;;1.33;0.00;;;;;1.86;100.00;100056.81;6310176;22;45183;-80
2022/04/01 02:33:40;;;;;;;;;1.00;1.00;;;;;1.71;100.00;100039.13;6309114;22;44796;-81
2022/04/01 02:36:10;;;;;;;;;2.33;2.00;;;;;1.72;100.00;100057.38;6307189;22;44827;-80
2022/04/01 02:38:40;;;;;;;;;1.67;1.67;;;;;1.70;100.00;100029.56;6306118;22;46015;-79
2022/04/01 02:41:07;;;;;;;;;5.00;2.00;;;;;1.69;100.00;100043.53;6305891;22;45194;-81
2022/04/01 02:43:33;;;;;;;;;3.00;2.67;;;;;1.67;100.00;100058.47;6280519;22;44813;-80
2022/04/01 02:45:59;;;;;;;;;0.00;0.00;;;;;1.66;100.00;100028.00;6314877;22;44720;-80
2022/04/01 02:48:26;;;;;;;;;10.00;3.00;;;;;1.65;100.00;100023.69;6314021;22;45032;-80
2022/04/01 02:50:51;;;;;;;;;2.00;0.00;;;;;1.67;100.00;100035.78;6307056;22;45089;-80
2022/04/01 02:53:18;;;;;;;;;1.00;1.00;;;;;1.65;100.00;100062.94;6306609;22;44954;-80
2022/04/01 02:55:44;;;;;;;;;5.00;3.00;;;;;1.65;100.00;100032.38;6306199;22;45280;-80
2022/04/01 02:58:10;;;;;;;;;7.00;5.00;;;;;1.60;100.00;100031.72;6305598;22;45109;-80
2022/04/01 03:00:37;;;;;;;;;3.00;3.00;;;;;1.52;100.00;100057.34;6305713;22;44700;-81
2022/04/01 03:03:08;;;;;;;;;2.33;2.33;;;;;1.48;100.00;100033.06;6312244;22;44816;-80
2022/04/01 03:05:37;;;;;;;;;3.00;3.00;;;;;1.49;100.00;100031.28;6311272;22;45603;-79
2022/04/01 03:08:07;;;;;;;;;8.33;2.33;;;;;1.48;100.00;100032.22;6310003;22;45303;-81
2022/04/01 03:10:39;;;;;;;;;5.00;2.33;;;;;1.51;100.00;100025.09;6252452;22;44713;-79
2022/04/01 03:13:09;;;;;;;;;2.00;2.00;;;;;1.44;100.00;100070.72;6306479;22;45297;-82
2022/04/01 03:15:37;;;;;;;;;5.33;2.67;;;;;1.40;100.00;100035.16;6306673;22;44840;-81
2022/04/01 03:18:03;;;;;;;;;2.00;2.00;;;;;1.40;100.00;100024.69;6312032;22;45267;-81
2022/04/01 03:20:29;;;;;;;;;2.00;2.00;;;;;1.35;100.00;100015.28;6311985;22;44867;-81
2022/04/01 03:22:55;;;;;;;;;5.67;3.00;;;;;1.32;100.00;100028.53;6306671;22;44775;-81
2022/04/01 03:25:20;;;;;;;;;3.00;3.00;;;;;1.29;100.00;100032.09;6310880;22;44856;-81
2022/04/01 03:27:46;;;;;;;;;3.00;3.00;;;;;1.23;100.00;100033.19;6308264;22;45092;-80
2022/04/01 03:30:13;;;;;;;;;1.00;1.00;;;;;1.26;100.00;100012.16;6307020;22;44809;-82
2022/04/01 03:32:41;;;;;;;;;2.00;2.00;;;;;1.31;100.00;100014.59;6306282;22;44852;-82
2022/04/01 03:35:09;;;;;;;;;5.00;3.00;;;;;1.33;100.00;100019.75;6306704;22;45194;-81
2022/04/01 03:37:35;;;;;;;;;2.67;1.67;;;;;1.29;100.00;100026.88;6278062;22;45281;-80
2022/04/01 03:40:01;;;;;;;;;2.00;2.00;;;;;1.33;100.00;100014.53;6306509;22;44699;-82
2022/04/01 03:42:30;;;;;;;;;1.00;1.00;;;;;1.34;100.00;100017.06;6305895;22;44693;-82
2022/04/01 03:44:58;;;;;;;;;3.67;2.00;;;;;1.33;100.00;100009.28;6306410;22;45245;-82
2022/04/01 03:47:32;;;;;;;;;1.00;1.00;;;;;1.35;100.00;100024.00;6306250;22;45057;-82
2022/04/01 03:50:00;;;;;;;;;1.33;0.33;;;;;1.35;100.00;100017.91;6308846;22;45328;-82
2022/04/01 03:52:26;;;;;;;;;1.00;1.00;;;;;1.36;100.00;100028.34;6314602;22;44615;-82
2022/04/01 03:54:56;;;;;;;;;2.00;0.33;;;;;1.39;100.00;100012.50;6309921;22;44745;-81
2022/04/01 03:57:32;;;;;;;;;2.00;2.00;;;;;1.42;100.00;100011.53;6308460;22;45266;-83
2022/04/01 03:59:59;;;;;;;;;1.33;1.33;;;;;1.40;100.00;100013.34;6308997;22;44710;-81
2022/04/01 04:02:24;;;;;;;;;4.00;2.00;;;;;1.42;100.00;100008.91;6306238;22;44762;-80
2022/04/01 04:04:54;;;;;;;;;2.00;2.00;;;;;1.46;100.00;99993.03;6277727;22;44882;-81
2022/04/01 04:07:19;;;;;;;;;2.67;2.67;;;;;1.49;100.00;100042.59;6308832;22;46105;-84
2022/04/01 04:09:45;;;;;;;;;1.67;1.00;;;;;1.51;100.00;100021.63;6312844;22;44778;-80
2022/04/01 04:12:13;;;;;;;;;8.33;5.00;;;;;1.49;100.00;99999.88;6311434;22;44739;-81
2022/04/01 04:14:42;;;;;;;;;1.00;1.00;;;;;1.50;100.00;100025.16;6309022;22;45266;-81
2022/04/01 04:17:24;;;;;;;;;1.67;1.67;;;;;1.54;100.00;100031.94;6306533;22;46319;-81
2022/04/01 04:19:52;;;;;;;;;3.00;3.00;;;;;1.53;100.00;100007.53;6311166;22;44677;-81
2022/04/01 04:22:32;;;;;;;;;0.00;0.00;;;;;1.56;100.00;100011.81;6311178;22;44708;-81
2022/04/01 04:24:59;;;;;;;;;9.33;3.67;;;;;1.59;100.00;99995.13;6312250;22;45262;-81
2022/04/01 04:27:30;;;;;;;;;2.00;2.00;;;;;1.60;100.00;99987.22;6309483;22;45015;-82
2022/04/01 04:30:08;;;;;;;;;3.00;3.00;;;;;1.65;100.00;100003.59;6308519;22;44753;-80
2022/04/01 04:32:38;;;;;;;;;3.33;2.00;;;;;1.66;100.00;100010.50;6314087;22;44806;-83
2022/04/01 04:35:08;;;;;;;;;5.00;5.00;;;;;1.69;100.00;99989.44;6316391;22;44827;-83
2022/04/01 04:37:45;;;;;;;;;3.00;3.00;;;;;1.70;100.00;99999.00;6311298;22;45095;-82
2022/04/01 04:40:12;;;;;;;;;1.00;1.00;;;;;1.74;100.00;99977.00;6305338;22;44668;-82
2022/04/01 04:42:44;;;;;;;;;3.33;2.33;;;;;1.78;100.00;99996.03;6306026;22;44650;-82
2022/04/01 04:45:11;;;;;;;;;1.00;1.00;;;;;1.77;100.00;100002.19;6305735;22;44734;-82
2022/04/01 04:47:41;;;;;;;;;3.00;3.00;;;;;1.80;100.00;100010.78;6304171;22;45355;-82
2022/04/01 04:50:07;;;;;;;;;2.00;2.00;;;;;1.83;100.00;100006.31;6305536;22;45371;-82
2022/04/01 04:52:32;;;;;;;;;4.67;3.00;;;;;1.82;100.00;100015.09;6305864;22;44770;-82
2022/04/01 04:55:00;;;;;;;;;1.67;1.67;;;;;1.84;100.00;100011.50;6309186;22;45236;-82
2022/04/01 04:57:27;;;;;;;;;3.33;3.00;;;;;1.87;100.00;100005.28;6310575;22;45285;-82
2022/04/01 04:59:53;;;;;;;;;3.00;3.00;;;;;1.87;100.00;100002.66;6308577;22;45270;-83
2022/04/01 05:02:34;;;;;;;;;6.67;5.00;;;;;1.87;100.00;100013.13;6307095;22;44801;-83
2022/04/01 05:05:07;;;;;;;;;0.67;0.67;;;;;1.87;100.00;100010.50;6281348;22;44746;-82
2022/04/01 05:07:49;;;;;;;;;6.67;6.67;;;;;1.85;100.00;100005.34;6308354;22;44940;-84
2022/04/01 05:10:22;;;;;;;;;6.33;5.00;;;;;1.87;100.00;100003.50;6308227;22;44693;-81
2022/04/01 05:13:02;;;;;;;;;0.00;0.00;;;;;1.86;100.00;100014.06;6309441;22;44785;-84
2022/04/01 05:15:34;;;;;;;;;3.33;3.33;;;;;1.84;100.00;100011.50;6288648;22;44698;-82
2022/04/01 05:18:25;;;;;;;;;3.00;3.00;;;;;1.81;100.00;100037.81;6315978;22;45083;-82
2022/04/01 05:20:58;;;;;;;;;5.67;5.67;;;;;1.79;100.00;100016.09;6310829;22;45313;-82
2022/04/01 05:23:44;;;;;;;;;5.00;3.00;;;;;1.85;100.00;100013.22;6307460;22;44738;-83
2022/04/01 05:26:12;;;;;;;;;4.33;4.33;;;;;1.88;100.00;100023.53;6306070;22;44886;-83
2022/04/01 05:28:52;;;;;;;;;6.67;5.67;;;;;1.89;100.00;100043.59;6308238;22;45161;-83
2022/04/01 05:31:42;;;;;;;;;6.00;6.00;;;;;1.94;100.00;100036.38;6308208;22;44712;-84
2022/04/01 05:34:08;;;;;;;;;5.00;5.00;;;;;1.94;100.00;100027.69;6309274;22;45371;-83
2022/04/01 05:36:34;;;;;;;;;6.33;3.00;;;;;1.98;100.00;100037.97;6307553;22;45285;-82
2022/04/01 05:39:03;;;;;;;;;4.67;4.67;;;;;2.00;100.00;100053.59;6306819;22;44993;-83
2022/04/01 05:41:28;;;;;;;;;5.00;5.00;;;;;2.03;100.00;100037.72;6253130;22;44804;-84
2022/04/01 05:43:57;;;;;;;;;6.33;5.00;;;;;2.00;100.00;100032.66;6306704;22;44728;-84
2022/04/01 05:46:25;;;;;;;;;5.67;5.67;;;;;1.94;100.00;100036.38;6306120;22;44764;-83
2022/04/01 05:48:53;;;;;;;;;3.00;3.00;;;;;1.90;100.00;100031.34;6277906;22;45245;-83
2022/04/01 05:51:20;;;;;;;;;2.00;2.00;;;;;1.85;100.00;100067.34;6305671;22;45277;-83
2022/04/01 05:53:48;;;;;;;;;7.00;5.00;;;;;1.89;100.00;100045.34;6278141;22;45222;-83
2022/04/01 05:56:15;;;;;;;;;8.00;8.00;;;;;1.94;100.00;100043.41;6277266;22;44733;-83
2022/04/01 05:58:42;;;;;;;;;6.00;6.00;;;;;1.95;100.00;100051.19;6305130;22;45074;-83
2022/04/01 06:01:29;;;;;;;;;3.67;3.67;;;;;1.93;100.00;100065.25;6306023;22;44705;-84
2022/04/01 06:03:59;;;;;;;;;3.00;2.00;;;;;1.96;100.00;100055.50;6309330;22;45278;-83
2022/04/01 06:06:40;;;;;;;;;6.00;4.67;;;;;1.88;100.00;100059.34;6308816;22;45332;-83
2022/04/01 06:09:34;;;;;;;;;7.00;7.00;;;;;1.77;100.00;100076.34;6317111;22;45135;-83
2022/04/01 06:12:22;;;;;;;;;8.67;7.33;;;;;1.73;100.00;100082.63;6313508;22;44694;-83
2022/04/01 06:14:58;;;;;;;;;10.67;8.00;;;;;1.72;100.00;100112.34;6278617;22;44640;-83
2022/04/01 06:17:48;;;;;;;;;7.00;7.00;;;;;1.61;100.00;100100.63;6278827;22;45064;-83
2022/04/01 06:20:16;;;;;;;;;5.00;5.00;;;;;1.53;100.00;100100.91;6282577;22;46712;-84
2022/04/01 06:22:59;;;;;;;;;6.33;6.33;;;;;1.51;100.00;100110.63;6313591;22;45274;-84
2022/04/01 06:25:34;;;;;;;;;7.00;6.00;;;;;1.36;100.00;100125.16;6315145;22;44732;-84
2022/04/01 06:28:15;;;;;;;;;12.33;11.00;;;;;1.28;100.00;100117.59;6310044;22;45257;-83
2022/04/01 06:30:44;;;;;;;;;9.00;8.33;;;;;1.23;100.00;100110.84;6307645;22;45420;-83
2022/04/01 06:33:49;;;;;;;;;10.00;10.00;;;;;1.16;100.00;100141.63;6308424;22;44779;-85
2022/04/01 06:36:21;;;;;;;;;9.67;9.67;;;;;1.09;100.00;100137.50;6280587;22;44740;-84
2022/04/01 06:39:03;;;;;;;;;7.00;7.00;;;;;1.11;100.00;100135.69;6308524;22;44622;-83
2022/04/01 06:41:31;;;;;;;;;11.00;11.00;;;;;1.07;100.00;100141.13;6312444;22;45361;-84
2022/04/01 06:43:57;;;;;;;;;11.33;9.00;;;;;0.99;100.00;100133.53;6285622;22;44702;-85
2022/04/01 06:46:22;;;;;;;;;8.67;6.67;;;;;0.93;100.00;100162.53;6309577;22;44749;-85
2022/04/01 06:48:47;;;;;;;;;6.33;6.33;;;;;0.88;100.00;100156.63;6310074;22;44892;-84
2022/04/01 06:51:14;;;;;;;;;5.67;4.33;;;;;0.72;100.00;100159.78;6308854;22;45292;-83
2022/04/01 06:53:41;;;;;;;;;12.00;12.00;;;;;0.72;100.00;100148.47;6280246;22;45270;-84
2022/04/01 06:56:08;;;;;;;;;13.33;11.00;;;;;0.69;100.00;100152.06;6281882;22;45351;-84
2022/04/01 06:58:34;;;;;;;;;13.00;10.33;;;;;0.70;100.00;100173.81;6321819;22;44875;-81
2022/04/01 07:01:14;;;;;;;;;13.67;13.33;;;;;0.72;100.00;100188.53;6288062;22;46840;-84
2022/04/01 07:03:39;;;;;;;;;11.33;10.00;;;;;0.72;100.00;100169.38;6287776;22;44682;-82
2022/04/01 07:06:07;;;;;;;;;11.00;10.00;;;;;0.68;100.00;100171.28;6319262;22;44974;-84
2022/04/01 07:08:33;;;;;;;;;11.00;10.00;;;;;0.69;100.00;100183.44;6310322;22;44650;-84
2022/04/01 07:10:59;;;;;;;;;12.67;12.00;;;;;0.67;100.00;100176.53;6280087;22;45108;-88
2022/04/01 07:13:24;;;;;;;;;10.00;7.67;;;;;0.63;100.00;100180.16;6280042;22;44848;-83
2022/04/01 07:15:50;;;;;;;;;15.67;12.33;;;;;0.61;100.00;100184.59;6308370;22;44847;-84
2022/04/01 07:18:18;;;;;;;;;13.67;12.00;;;;;0.59;100.00;100174.22;6282687;22;44836;-84
2022/04/01 07:20:43;;;;;;;;;19.00;19.00;;;;;0.66;100.00;100193.13;6310065;22;45099;-84
2022/04/01 07:23:09;;;;;;;;;19.00;11.00;;;;;0.72;100.00;100172.84;6309140;22;44621;-85
2022/04/01 07:25:34;;;;;;;;;11.00;11.00;;;;;0.72;100.00;100212.06;6311327;22;44711;-86
2022/04/01 07:28:01;;;;;;;;;12.33;10.67;;;;;0.73;100.00;100181.56;6318491;22;44806;-84
2022/04/01 07:30:26;;;;;;;;;14.00;14.00;;;;;0.74;100.00;100178.03;6322061;22;45083;-85
2022/04/01 07:32:58;;;;;;;;;18.00;16.33;;;;;0.76;100.00;100189.28;6321387;22;44614;-86
2022/04/01 07:35:25;;;;;;;;;22.33;22.33;;;;;0.74;100.00;100191.97;6285038;22;44752;-86
2022/04/01 07:37:51;;;;;;;;;13.33;10.67;;;;;0.79;100.00;100209.25;6281104;22;44830;-85
2022/04/01 07:40:18;;;;;;;;;22.67;19.67;;;;;0.83;100.00;100182.94;6310470;22;45405;-84
2022/04/01 07:42:44;;;;;;;;;23.67;22.33;;;;;0.83;100.00;100189.94;6309788;22;44748;-85
2022/04/01 07:45:11;;;;;;;;;16.00;14.33;;;;;0.85;100.00;100199.41;6255404;22;45197;-84
2022/04/01 07:47:37;;;;;;;;;22.33;21.67;;;;;0.92;100.00;100197.41;6308586;22;44717;-85
2022/04/01 07:50:05;;;;;;;;;19.33;16.33;;;;;0.90;100.00;100220.16;6307202;22;45439;-83
2022/04/01 07:52:32;;;;;;;;;21.67;18.33;;;;;0.91;100.00;100212.25;6309035;22;45246;-85
2022/04/01 07:54:57;;;;;;;;;15.33;15.33;;;;;0.94;100.00;100216.53;6283887;22;44637;-85
2022/04/01 07:57:23;;;;;;;;;26.33;22.00;;;;;0.95;100.00;100229.56;6283250;22;44773;-85
2022/04/01 07:59:49;;;;;;;;;19.33;13.00;;;;;0.97;100.00;100203.38;6281327;22;46504;-86
2022/04/01 08:02:16;;;;;;;;;12.00;11.33;;;;;1.02;100.00;100217.97;6313345;22;44847;-84
2022/04/01 08:04:42;;;;;;;;;9.00;9.00;;;;;1.02;100.00;100210.13;6314466;22;44834;-85
2022/04/01 08:07:07;;;;;;;;;23.67;21.33;;;;;1.05;100.00;100214.38;6280114;22;45342;-86
2022/04/01 08:09:33;;;;;;;;;19.33;19.00;;;;;1.11;100.00;100218.53;6307578;22;45211;-85
2022/04/01 08:12:00;;;;;;;;;25.67;19.67;;;;;1.14;100.00;100234.13;6278236;22;45036;-84
2022/04/01 08:14:27;;;;;;;;;14.00;14.00;;;;;1.15;100.00;100238.44;6279185;22;45298;-85
2022/04/01 08:16:52;;;;;;;;;21.67;19.67;;;;;1.14;100.00;100229.75;6279246;22;45239;-85
2022/04/01 08:19:17;;;;;;;;;18.00;15.67;;;;;1.15;100.00;100228.84;6305159;22;44973;-85
2022/04/01 08:21:45;;;;;;;;;13.00;13.00;;;;;1.18;100.00;100243.56;6279334;22;44581;-85
2022/04/01 08:24:11;;;;;;;;;23.33;17.33;;;;;1.18;100.00;100218.25;6307333;22;44847;-87
2022/04/01 08:26:37;;;;;;;;;17.33;17.33;;;;;1.23;100.00;100247.72;6311062;22;44780;-84
2022/04/01 08:29:03;;;;;;;;;19.67;17.33;;;;;1.21;100.00;100235.59;6320246;22;45250;-81
2022/04/01 08:31:30;;;;;;;;;22.67;20.67;;;;;1.16;100.00;100256.72;6319874;22;44906;-84
2022/04/01 08:33:56;;;;;;;;;20.00;16.00;;;;;1.16;100.00;100248.88;6315657;22;44669;-81
2022/04/01 08:36:22;;;;;;;;;22.33;17.00;;;;;1.18;100.00;100254.88;6313696;22;45200;-84
2022/04/01 08:38:48;;;;;;;;;16.00;16.00;;;;;1.14;100.00;100274.22;6310977;22;44862;-83
2022/04/01 08:41:18;;;;;;;;;23.00;19.67;;;;;1.15;100.00;100265.44;6278834;22;45281;-85
2022/04/01 08:43:45;;;;;;;;;15.33;15.33;;;;;1.13;100.00;100324.81;6277624;22;45203;-84
2022/04/01 08:46:11;;;;;;;;;16.33;15.00;;;;;1.15;100.00;100264.59;6305397;22;44803;-82
2022/04/01 08:48:37;;;;;;;;;18.67;15.00;;;;;1.20;100.00;100279.22;6277505;22;46923;-82
2022/04/01 08:51:04;;;;;;;;;14.33;14.33;;;;;1.18;100.00;100275.81;6306881;22;44673;-84
2022/04/01 08:53:36;;;;;;;;;14.33;14.33;;;;;1.21;100.00;100291.41;6281781;22;44805;-84
2022/04/01 08:56:01;;;;;;;;;26.33;17.00;;;;;1.18;100.00;100288.91;6307505;22;45380;-84
2022/04/01 08:58:27;;;;;;;;;12.67;12.33;;;;;1.19;100.00;100305.44;6309330;22;44974;-82
2022/04/01 09:00:52;;;;;;;;;23.67;18.00;;;;;1.22;100.00;100303.59;6281750;22;44809;-85
2022/04/01 09:03:21;;;;;;;;;23.00;20.33;;;;;1.21;100.00;100308.84;6308515;22;44857;-84
2022/04/01 09:05:58;;;;;;;;;21.00;19.00;;;;;1.23;100.00;100305.28;6307216;22;44777;-84
2022/04/01 09:08:24;;;;;;;;;22.67;22.67;;;;;1.21;100.00;100317.56;6281194;22;45249;-84
2022/04/01 09:10:58;;;;;;;;;16.67;16.67;;;;;1.23;100.00;100299.19;6310584;22;45100;-84
2022/04/01 09:13:29;;;;;;;;;11.67;11.67;;;;;1.23;100.00;100315.75;6311158;22;44785;-85
2022/04/01 09:15:55;;;;;;;;;25.33;22.33;;;;;1.26;100.00;100310.41;6308042;22;44879;-82
2022/04/01 09:18:37;;;;;;;;;24.67;22.00;;;;;1.31;100.00;100322.50;6309363;22;45135;-84
2022/04/01 09:21:03;;;;;;;;;19.33;18.67;;;;;1.35;100.00;100317.06;6282909;22;44728;-85
2022/04/01 09:23:29;;;;;;;;;19.33;17.00;;;;;1.41;100.00;100343.03;6312980;22;44821;-85
2022/04/01 09:25:54;;;;;;;;;16.67;16.67;;;;;1.43;100.00;100327.28;6281551;22;45286;-85
2022/04/01 09:28:27;;;;;;;;;19.67;17.67;;;;;1.45;100.00;100333.28;6306583;22;45395;-83
2022/04/01 09:31:06;;;;;;;;;22.33;21.67;;;;;1.45;100.00;100331.56;6279701;22;44681;-84
2022/04/01 09:33:47;;;;;;;;;23.67;23.33;;;;;1.45;100.00;100322.81;6310636;22;44737;-84
2022/04/01 09:36:33;;;;;;;;;27.00;19.67;;;;;1.42;100.00;100338.66;6314752;22;44741;-85
2022/04/01 09:39:16;;;;;;;;;17.67;15.67;;;;;1.39;100.00;100336.97;6315257;22;45429;-85
2022/04/01 09:41:44;;;;;;;;;17.67;17.67;;;;;1.51;100.00;100335.72;6318971;22;44648;-85
2022/04/01 09:44:15;;;;;;;;;17.33;16.00;;;;;1.59;100.00;100349.34;6287767;22;44775;-85
2022/04/01 09:46:52;;;;;;;;;28.33;26.67;;;;;1.62;100.00;100348.41;6315149;22;45142;-81
2022/04/01 09:49:42;;;;;;;;;18.67;18.67;;;;;1.61;100.00;100344.06;6314856;22;45985;-83
2022/04/01 09:52:18;;;;;;;;;24.00;19.67;;;;;1.68;100.00;100342.94;6319469;22;44825;-87
2022/04/01 09:54:54;;;;;;;;;21.67;17.67;;;;;1.70;100.00;100333.28;6322374;22;44692;-86
2022/04/01 09:57:22;;;;;;;;;25.00;18.00;;;;;1.70;100.00;100368.16;6319856;22;44717;-88
2022/04/01 09:59:49;;;;;;;;;15.67;15.67;;;;;1.78;100.00;100347.75;6317441;22;45173;-87
2022/04/01 10:02:22;;;;;;;;;16.33;16.00;;;;;1.82;100.00;100377.31;6313393;22;45186;-88
2022/04/01 10:04:48;;;;;;;;;19.33;17.00;;;;;1.86;100.00;100357.13;6311708;22;44667;-88
2022/04/01 10:07:13;;;;;;;;;21.67;20.33;;;;;1.87;100.00;100345.72;6285693;22;44777;-88
2022/04/01 10:09:39;;;;;;;;;31.33;30.00;;;;;1.81;100.00;100409.66;6283832;22;46398;-89
2022/04/01 10:12:11;;;;;;;;;16.00;16.00;;;;;1.75;100.00;100381.94;6283771;22;44841;-88
2022/04/01 10:14:41;;;;;;;;;24.00;21.00;;;;;1.82;100.00;100369.47;6310729;22;44641;-87
2022/04/01 10:17:12;;;;;;;;;14.33;10.67;;;;;1.87;100.00;100362.28;6287320;22;44806;-87
2022/04/01 10:19:41;;;;;;;;;24.00;20.67;;;;;1.92;100.00;100407.50;6321807;22;44948;-87
2022/04/01 10:22:07;;;;;;;;;20.00;17.00;;;;;1.83;100.00;100337.13;6325284;22;44730;-90
2022/04/01 10:24:47;;;;;;;;;22.33;20.67;;;;;1.87;100.00;100380.63;6297140;22;44811;-88
2022/04/01 10:27:33;;;;;;;;;17.33;17.33;;;;;1.93;100.00;100371.69;6325426;22;44702;-89
2022/04/01 10:29:59;;;;;;;;;23.00;23.00;;;;;1.94;100.00;100379.50;6293487;22;46470;-89
2022/04/01 10:32:28;;;;;;;;;17.00;15.67;;;;;1.95;100.00;100377.72;6319300;22;44721;-87
2022/04/01 10:34:57;;;;;;;;;21.67;21.00;;;;;2.01;100.00;100378.34;6287544;22;44638;-87
2022/04/01 10:37:25;;;;;;;;;18.67;18.67;;;;;1.99;100.00;100389.81;6316005;22;44840;-88
2022/04/01 10:40:06;;;;;;;;;28.33;22.33;;;;;2.09;100.00;100383.31;6286101;22;45318;-89
2022/04/01 10:42:39;;;;;;;;;21.33;17.00;;;;;2.15;100.00;100384.84;6318207;22;44576;-91
2022/04/01 10:45:24;;;;;;;;;16.00;16.00;;;;;2.15;100.00;100398.78;6294174;22;44568;-88
2022/04/01 10:53:35;;;;;;;;;19.00;19.00;;;;;2.12;100.00;100416.38;6313922;22;45258;-89
2022/04/01 10:56:22;;;;;;;;;18.00;17.00;;;;;2.18;100.00;100401.31;6289431;22;44726;-88
2022/04/01 10:59:01;;;;;;;;;20.67;20.00;;;;;2.22;100.00;100425.59;6291062;22;44928;-87
2022/04/01 11:01:27;;;;;;;;;17.67;13.67;;;;;2.33;100.00;100384.13;6287005;22;46909;-88
2022/04/01 11:03:52;;;;;;;;;23.00;21.33;;;;;2.29;100.00;100414.00;6286025;22;44690;-87
2022/04/01 11:06:23;;;;;;;;;17.00;17.00;;;;;2.28;100.00;100420.16;6287673;22;44776;-90
2022/04/01 11:08:55;;;;;;;;;12.33;12.33;;;;;2.34;100.00;100414.66;6323909;22;44820;-87
2022/04/01 11:11:21;;;;;;;;;21.67;18.67;;;;;2.46;100.00;100403.69;6312131;22;45044;-91
2022/04/01 11:14:14;;;;;;;;;17.00;17.00;;;;;2.38;100.00;100429.38;6314366;22;45172;-91
2022/04/01 11:16:48;;;;;;;;;16.67;16.67;;;;;2.35;100.00;100441.72;6308224;22;44884;-89
2022/04/01 11:19:18;;;;;;;;;27.33;23.00;;;;;2.34;100.00;100424.31;6286373;22;44757;-88
2022/04/01 11:21:47;;;;;;;;;22.67;21.33;;;;;2.26;100.00;100422.81;6314072;22;45008;-91
2022/04/01 11:24:33;;;;;;;;;27.00;20.33;;;;;2.27;100.00;100434.16;6316769;22;44581;-89
2022/04/01 11:27:05;;;;;;;;;10.00;6.67;;;;;2.27;100.00;100432.41;6286066;22;44623;-89
2022/04/01 11:29:31;;;;;;;;;20.00;20.00;;;;;2.15;100.00;100442.47;6317762;22;44570;-90
2022/04/01 11:32:08;;;;;;;;;25.00;24.00;;;;;2.15;100.00;100443.34;6319942;22;45236;-90
2022/04/01 11:34:54;;;;;;;;;11.33;11.00;;;;;2.19;100.00;100442.31;6318788;22;44586;-89
2022/04/01 11:37:21;;;;;;;;;19.33;15.33;;;;;2.20;100.00;100451.03;6286644;22;45270;-89
2022/04/01 11:39:47;;;;;;;;;21.00;16.33;;;;;2.23;100.00;100451.78;6286858;22;45108;-90
2022/04/01 11:42:12;;;;;;;;;22.67;16.00;;;;;2.30;100.00;100431.41;6326271;22;44932;-91